Tiempo atmosférico en la estación meteorológica de Castuera , Badajoz (512 m.)



Fecha
DESCASC
Temp. máxima en grados centígrados (hora)
DESCASC
Temp. mínima en grados centígrados (hora)
DESCASC
Temp. media en grados centígrados
DESCASC
Racha de viento máxima en m/sg (hora)
DESCASC
Velocidad máxima media en intervalos de 10 minutos(hora)
DESCASC
Precipitaciones diarias en mm
DESCASC
Precipitaciones de 00:00 a 06:00 en mm
DESCASC
Precipitaciones de 06:00 a 12:00 en mm
DESCASC
Precipitaciones de 12:00 a 18:00 en mm
DESCASC
Precipitaciones de 18:00 a 24:00 en mm
DESCASC
20-05-2018 23.8 (15:30) 14.2 (05:50) 19 10.56 (17:10) 6.39 (17:10) 1 0 0.6 0.4 0
19-05-2018 25.7 (15:50) 13.2 (08:10) 19.5 12.78 (17:00) 7.22 (17:00) 26.2 0 0 25.2 1
18-05-2018 23 (13:30) 13.9 (00:00) 18.4 12.5 (09:10) 8.06 (09:00) 6.2 0 1.8 4.4 0
17-05-2018 26.7 (17:00) 14.4 (00:00) 20.6 9.17 (04:40) 5.83 (04:40) 0 0 0 0 0
16-05-2018 27.6 (16:50) 15.9 (00:00) 21.8 10.28 (14:50) 4.17 (12:00) 0 0 0 0 0
15-05-2018 24.4 (18:40) 13.6 (00:00) 19 8.33 (10:00) 4.72 (10:10) 0 0 0 0 0
14-05-2018 22.5 (17:10) 9.1 (00:00) 15.8 7.5 (15:20) 4.44 (15:30) 0 0 0 0 0
13-05-2018 20 (17:10) 5.2 (00:00) 12.6 9.44 (18:50) 5.28 (17:50) 0 0 0 0 0
12-05-2018 19 (16:50) 10.7 (00:00) 14.8 13.61 (19:30) 7.5 (19:10) 0.2 0 0.2 0 0
11-05-2018 26.5 (17:00) 12.8 (07:20) 19.7 8.06 (14:50) 4.17 (14:00) 0 0 0 0 0
10-05-2018 25.3 (18:20) 10.4 (00:00) 17.8 6.11 (17:50) 3.61 (15:10) 0 0 0 0 0
09-05-2018 24.2 (16:00) 13.1 (00:00) 18.7 11.67 (00:40) 6.94 (00:40) 6.2 6.2 0 0 0
08-05-2018 25.8 (16:50) 15 (00:00) 20.4 9.72 (18:00) 6.11 (20:40) 0 0 0 0 0
07-05-2018 26.1 (16:10) 14.6 (00:00) 20.4 9.17 (17:40) 5.56 (20:10) 0 0 0 0 0
06-05-2018 24.6 (17:10) 13.7 (00:00) 19.2 11.11 (22:20) 5.56 (07:00) 0.6 0 0 0 0.6
05-05-2018 25.1 (17:40) 13.2 (00:00) 19.2 8.06 (17:20) 3.61 (14:40) 0 0 0 0 0
04-05-2018 20 (18:10) 10.4 (00:00) 15.2 9.72 (11:00) 5.83 (11:00) 0 0 0 0 0
03-05-2018 20.7 (17:00) 7.9 (00:00) 14.3 8.61 (17:30) 4.72 (17:30) 0 0 0 0 0
02-05-2018 17.7 (16:50) 5.6 (00:00) 11.7 8.33 (15:00) 5 (16:00) 0 0 0 0 0
01-05-2018 15.4 (19:10) 6.6 (07:40) 11 10.28 (13:40) 4.44 (13:30) 5.2 0 0 5.2 0
30-04-2018 15.1 (18:50) 5.1 (00:00) 10.1 8.89 (16:40) 5.28 (16:40) 1.6 0 0 1.6 0
29-04-2018 14.1 (16:00) 6 (00:00) 10.1 15.83 (14:00) 10 (14:00) 2 1.2 0 0.8 0
28-04-2018 16.1 (15:10) 7.5 (00:00) 11.8 11.11 (12:50) 6.67 (12:20) 2.6 0 0 0 2.6
27-04-2018 22.3 (16:10) 11.6 (00:00) 16.9 10 (16:50) 6.11 (18:10) 0 0 0 0 0
26-04-2018 27.6 (17:00) 14.9 (00:00) 21.3 8.61 (00:10) 5.83 (00:10) 0 0 0 0 0
25-04-2018 27.2 (18:00) 14.3 (00:00) 20.8 12.78 (22:10) 7.22 (23:30) 0 0 0 0 0
24-04-2018 22.4 (18:10) 16 (00:00) 19.2 12.22 (09:20) 7.22 (09:20) 0 0 0 0 0
23-04-2018 23.9 (15:40) 13.5 (00:00) 18.7 11.67 (02:10) 7.5 (02:10) 4.8 4.6 0.2 0 0
22-04-2018 22.3 (16:50) 12.3 (00:00) 17.3 15.83 (09:00) 9.44 (11:40) 8.2 3 0.6 0 4.6

Gráficas

Temp. máximas Temp. mínimas Temp. medias Precipitaciones Rachas de viento máximas Velocidades máximas media en intervalos de 10 minutos

Datos horarios

Fecha y hora oficial Temperatura (ºC) Velocidad del viento (km/h) Dirección del viento Racha (km/h) Dirección de racha Precipitación (mm) Presión (hPa) Tendencia (hPa) Humedad (%)
2018-05-21 23:00:00 17.5 8 Sudeste 11 Sudeste 0 -- -- 59
2018-05-21 22:00:00 17.9 5 Sudeste 8 Sudeste 0 -- -- 59
2018-05-21 21:00:00 19.5 5 Sudoeste 16 Oeste 0 -- -- 61
2018-05-21 20:00:00 21.3 13 Oeste 21 Oeste 0 -- -- 53
2018-05-21 19:00:00 18.4 3 Oeste 16 Oeste 0 -- -- 73
2018-05-21 18:00:00 17.3 11 Noroeste 20 Oeste 0.2 -- -- 75
2018-05-21 17:00:00 16.5 14 Noroeste 26 Noroeste 3.8 -- -- 78
2018-05-21 16:00:00 21.6 14 Oeste 23 Sudoeste 0 -- -- 54
2018-05-21 15:00:00 24.8 15 Sudoeste 29 Sudoeste 0 -- -- 46
2018-05-21 14:00:00 23.1 9 Oeste 35 Oeste 0 -- -- 48
2018-05-21 13:00:00 22 8 Oeste 16 Noroeste 0 -- -- 50
2018-05-21 12:00:00 19.6 8 Oeste 17 Sur 0 -- -- 61
2018-05-21 11:00:00 17.9 6 Sur 12 Sur 0 -- -- 73
2018-05-21 10:00:00 17.3 6 Sur 12 Sudoeste 0 -- -- 75
2018-05-21 09:00:00 14.9 7 Sudeste 18 Sudeste 0 -- -- 85
2018-05-21 08:00:00 13.6 10 Sudeste 17 Sudeste 0 -- -- 89
2018-05-21 07:00:00 13.8 9 Sur 25 Sudeste 0 -- -- 88
2018-05-21 06:00:00 14 14 Sudeste 22 Sudeste 0 -- -- 84
2018-05-21 05:00:00 13.9 15 Sudeste 23 Sudeste 0 -- -- 84
2018-05-21 04:00:00 14.3 10 Sudeste 17 Sudeste 0 -- -- 83
2018-05-21 03:00:00 14.6 5 Sur 11 Sudeste 0 -- -- 79
2018-05-21 02:00:00 14.6 4 Sudeste 16 Sudeste 0 -- -- 78
2018-05-21 01:00:00 15.2 11 Sudeste 19 Sudeste 0 -- -- 76
2018-05-21 00:00:00 15.1 7 Sudeste 15 Sudeste 0 -- -- 77
2018-05-20 23:00:00 16.4 10 Sudeste 17 Sudeste 0 -- -- 68
2018-05-20 22:00:00 16.4 3 Sur 6 Sudoeste 0 -- -- 70
2018-05-20 21:00:00 17.3 6 Este 16 Nordeste 0 -- -- 58
2018-05-20 20:00:00 18.4 10 Nordeste 19 Norte 0 -- -- 56
2018-05-20 19:00:00 17.6 11 Norte 23 Norte 0 -- -- 60
2018-05-20 18:00:00 18.1 11 Norte 38 Norte 0 -- -- 64
2018-05-20 17:00:00 19.2 18 Noroeste 37 Noroeste 0 -- -- 63
2018-05-20 16:00:00 21.7 15 Oeste 27 Oeste 0 -- -- 57
2018-05-20 15:00:00 22.5 18 Sudoeste 30 Sudoeste 0 -- -- 59
2018-05-20 14:00:00 20.8 19 Sur 28 Sur 0 -- -- 70
2018-05-20 13:00:00 17.3 16 Sur 30 Sudeste 0.4 -- -- 83
2018-05-20 12:00:00 16.5 12 Sudeste 25 Sudeste 0 -- -- 79
2018-05-20 11:00:00 16.1 5 Sur 9 Oeste 0.6 -- -- 88
2018-05-20 10:00:00 16.7 7 Oeste 9 Oeste 0 -- -- 83
2018-05-20 09:00:00 15.9 2 Sudoeste 5 Oeste 0 -- -- 81
2018-05-20 08:00:00 14.7 3 Sur 5 Sudeste 0 -- -- 83
2018-05-20 07:00:00 14.3 3 Sur 6 Sur 0 -- -- 84
2018-05-20 06:00:00 14.2 5 Sur 8 Sudeste 0 -- -- 84
2018-05-20 05:00:00 14.8 2 Noroeste 9 Norte 0 -- -- 78
2018-05-20 04:00:00 15.2 4 Norte 10 Nordeste 0 -- -- 76
2018-05-20 03:00:00 14.7 3 Sudeste 6 Sudeste 0 -- -- 77
2018-05-20 02:00:00 14.6 0 Calma 4 Sur 0 -- -- 78
2018-05-20 01:00:00 14.9 2 Oeste 12 Noroeste 0 -- -- 77
2018-05-20 00:00:00 15.6 3 Norte 9 Noroeste 0 -- -- 73
2018-05-19 23:00:00 17.1 3 Nordeste 6 Sudeste 0 -- -- 59
2018-05-19 22:00:00 17 0 Calma 5 Este 0 -- -- 72
2018-05-19 21:00:00 18.5 4 Sur 17 Sur 0 -- -- 63
2018-05-19 20:00:00 17.8 10 Sur 21 Sur 0 -- -- 75
2018-05-19 19:00:00 14.8 15 Sur 22 Sur 1 -- -- 91
2018-05-19 18:00:00 14.9 7 Sur 42 Este 19.4 -- -- 90
2018-05-19 17:00:00 18.1 26 Este 46 Este 5.8 -- -- 65
2018-05-19 16:00:00 25.7 9 Noroeste 23 Norte 0 -- -- 37
2018-05-19 15:00:00 23 8 Noroeste 20 Noroeste 0 -- -- 46
2018-05-19 14:00:00 22.8 9 Noroeste 16 Oeste 0 -- -- 47
2018-05-19 13:00:00 21.3 6 Nordeste 12 Noroeste 0 -- -- 52
2018-05-19 12:00:00 19.1 7 Norte 14 Norte 0 -- -- 59
2018-05-19 11:00:00 18.3 6 Nordeste 12 Nordeste 0 -- -- 59
2018-05-19 10:00:00 16.6 3 Sudoeste 6 Sur 0 -- -- 75
2018-05-19 09:00:00 14.5 0 Calma 6 Sur 0 -- -- 82
2018-05-19 08:00:00 13.3 2 Sudeste 9 Nordeste 0 -- -- 78
2018-05-19 07:00:00 13.7 6 Nordeste 10 Nordeste 0 -- -- 73
2018-05-19 06:00:00 14 3 Sudeste 12 Sudeste 0 -- -- 74
2018-05-19 05:00:00 14.1 0 Calma 8 Nordeste 0 -- -- 73
2018-05-19 04:00:00 15 3 Sur 17 Este 0 -- -- 69
2018-05-19 03:00:00 14.8 4 Este 12 Sur 0 -- -- 68
2018-05-19 02:00:00 14 6 Sur 10 Sudeste 0 -- -- 81
2018-05-19 01:00:00 13.4 7 Sur 10 Sur 0 -- -- 87
2018-05-19 00:00:00 13.9 7 Oeste 11 Oeste 0 -- -- 86
2018-05-18 23:00:00 14.4 2 Sur 21 Este 0 -- -- 85
2018-05-18 22:00:00 14.6 4 Nordeste 17 Este 0 -- -- 78
2018-05-18 21:00:00 14.2 7 Norte 25 Norte 0 -- -- 87
2018-05-18 20:00:00 15.1 12 Norte 33 Noroeste 0 -- -- 85
2018-05-18 19:00:00 19 7 Noroeste 19 Noroeste 0 -- -- 68
2018-05-18 18:00:00 19.3 9 Sudeste 31 Sudeste 0 -- -- 56
2018-05-18 17:00:00 19.3 17 Sudeste 35 Sudeste 0.6 -- -- 57
2018-05-18 16:00:00 16.7 17 Sudeste 31 Sur 3.8 -- -- 69
2018-05-18 15:00:00 19.6 16 Sudeste 26 Sudeste 0 -- -- 58
2018-05-18 14:00:00 21.1 13 Sudeste 25 Sudeste 0 -- -- 54
2018-05-18 13:00:00 21.1 8 Oeste 13 Norte 0 -- -- 60
2018-05-18 12:00:00 19.7 5 Sudoeste 14 Oeste 0 -- -- 66
2018-05-18 11:00:00 16.7 0 Calma 13 Noroeste 0 -- -- 74
2018-05-18 10:00:00 14.3 7 Noroeste 45 Este 0 -- -- 87
2018-05-18 09:00:00 15 29 Sudeste 42 Este 1.8 -- -- 75
2018-05-18 08:00:00 14.9 4 Sur 9 Sudeste 0 -- -- 74
2018-05-18 07:00:00 15.7 5 Sur 27 Sudeste 0 -- -- 67
2018-05-18 06:00:00 17.1 15 Sudeste 30 Sudeste 0 -- -- 53
2018-05-18 05:00:00 17.5 19 Este 37 Este 0 -- -- 52
2018-05-18 04:00:00 17.8 16 Este 32 Este 0 -- -- 52
2018-05-18 03:00:00 16.7 15 Nordeste 30 Norte 0 -- -- 58
2018-05-18 02:00:00 17.3 13 Norte 24 Norte 0 -- -- 56
2018-05-18 01:00:00 19.1 6 Sur 20 Sudoeste 0 -- -- 47
2018-05-18 00:00:00 21.1 2 Este 4 Nordeste 0 -- -- 32
2018-05-17 23:00:00 21.6 2 Sudoeste 6 Nordeste 0 -- -- 31
2018-05-17 22:00:00 22.5 3 Nordeste 9 Norte 0 -- -- 30
2018-05-17 21:00:00 24.8 6 Norte 10 Este 0 -- -- 26
2018-05-17 20:00:00 26 7 Norte 21 Este 0 -- -- 22
2018-05-17 19:00:00 26.1 8 Este 26 Este 0 -- -- 22
2018-05-17 18:00:00 26.3 10 Nordeste 23 Nordeste 0 -- -- 22
2018-05-17 17:00:00 26.7 11 Sur 32 Este 0 -- -- 20
2018-05-17 16:00:00 25.8 6 Este 24 Nordeste 0 -- -- 23
2018-05-17 15:00:00 24.8 10 Norte 28 Nordeste 0 -- -- 25
2018-05-17 14:00:00 23.7 9 Nordeste 25 Este 0 -- -- 27
2018-05-17 13:00:00 23.1 10 Este 24 Sudeste 0 -- -- 29
2018-05-17 12:00:00 22.4 9 Este 21 Este 0 -- -- 34
2018-05-17 11:00:00 21.4 4 Sur 18 Sudeste 0 -- -- 42
2018-05-17 10:00:00 19.2 2 Nordeste 12 Nordeste 0 -- -- 48
2018-05-17 09:00:00 16.8 7 Sudeste 28 Sudeste 0 -- -- 52
2018-05-17 08:00:00 14.6 16 Sudeste 30 Sudeste 0 -- -- 60
2018-05-17 07:00:00 14.6 19 Sudeste 31 Sudeste 0 -- -- 59
2018-05-17 06:00:00 15.8 19 Sudeste 31 Sudeste 0 -- -- 47
2018-05-17 05:00:00 17.9 20 Sudeste 33 Sudeste 0 -- -- 40
2018-05-17 04:00:00 18.4 18 Sudeste 29 Sudeste 0 -- -- 38
2018-05-17 03:00:00 20 17 Sudeste 31 Sudeste 0 -- -- 34
2018-05-17 02:00:00 22 15 Este 28 Este 0 -- -- 30
2018-05-17 01:00:00 22.2 13 Este 26 Sudeste 0 -- -- 28
2018-05-17 00:00:00 22.8 15 Sudeste 25 Sudeste 0 -- -- 27
2018-05-16 23:00:00 22.6 10 Sudeste 17 Sudeste 0 -- -- 31
2018-05-16 22:00:00 23.5 9 Este 17 Este 0 -- -- 29
2018-05-16 21:00:00 25.4 8 Nordeste 21 Norte 0 -- -- 26
2018-05-16 20:00:00 26.4 10 Nordeste 22 Sudeste 0 -- -- 24
2018-05-16 19:00:00 26.5 12 Nordeste 27 Este 0 -- -- 24
2018-05-16 18:00:00 26 8 Nordeste 24 Este 0 -- -- 26
2018-05-16 17:00:00 25.9 14 Este 26 Este 0 -- -- 26
2018-05-16 16:00:00 26.7 10 Este 28 Nordeste 0 -- -- 25
2018-05-16 15:00:00 26 9 Este 37 Este 0 -- -- 26
2018-05-16 14:00:00 25.1 10 Este 24 Este 0 -- -- 28
2018-05-16 13:00:00 24.5 9 Nordeste 24 Nordeste 0 -- -- 31
2018-05-16 12:00:00 22.5 15 Este 30 Sudeste 0 -- -- 35
2018-05-16 11:00:00 21.1 10 Este 24 Este 0 -- -- 40
2018-05-16 10:00:00 20.5 5 Sudeste 18 Este 0 -- -- 41
2018-05-16 09:00:00 18 3 Sur 12 Este 0 -- -- 47
2018-05-16 08:00:00 16.4 3 Este 13 Sudeste 0 -- -- 46
2018-05-16 07:00:00 16.9 2 Noroeste 17 Este 0 -- -- 42
2018-05-16 06:00:00 18.3 12 Este 20 Este 0 -- -- 38
2018-05-16 05:00:00 18.9 11 Este 19 Este 0 -- -- 36
2018-05-16 04:00:00 16.8 2 Noroeste 12 Nordeste 0 -- -- 42
2018-05-16 03:00:00 17.1 0 Calma 2 Sur 0 -- -- 41
2018-05-16 02:00:00 18.5 3 Sur 12 Este 0 -- -- 39
2018-05-16 01:00:00 19.1 7 Este 13 Nordeste 0 -- -- 36
2018-05-16 00:00:00 19.4 5 Nordeste 10 Nordeste 0 -- -- 35
2018-05-15 23:00:00 19.7 3 Norte 4 Norte 0 -- -- 35
2018-05-15 22:00:00 20.5 3 Nordeste 11 Nordeste 0 -- -- 32
2018-05-15 21:00:00 22.8 7 Nordeste 22 Nordeste 0 -- -- 27
2018-05-15 20:00:00 23.5 11 Nordeste 23 Nordeste 0 -- -- 24
2018-05-15 19:00:00 24.1 11 Nordeste 19 Norte 0 -- -- 23
2018-05-15 18:00:00 24 13 Nordeste 24 Nordeste 0 -- -- 23
2018-05-15 17:00:00 24 10 Norte 22 Norte 0 -- -- 22
2018-05-15 16:00:00 23.4 9 Norte 25 Norte 0 -- -- 23
2018-05-15 15:00:00 22.7 13 Norte 24 Norte 0 -- -- 25
2018-05-15 14:00:00 21.7 12 Nordeste 27 Norte 0 -- -- 26
2018-05-15 13:00:00 21.2 7 Nordeste 27 Este 0 -- -- 27
2018-05-15 12:00:00 19.7 14 Este 28 Sudeste 0 -- -- 28
2018-05-15 11:00:00 18.8 12 Sudeste 30 Este 0 -- -- 29
2018-05-15 10:00:00 16.7 14 Sudeste 30 Sudeste 0 -- -- 34
2018-05-15 09:00:00 15.1 3 Oeste 20 Sudeste 0 -- -- 50
2018-05-15 08:00:00 13.7 14 Este 25 Este 0 -- -- 45
2018-05-15 07:00:00 14.1 12 Este 22 Este 0 -- -- 45
2018-05-15 06:00:00 14.9 15 Este 25 Este 0 -- -- 43
2018-05-15 05:00:00 15.4 12 Este 22 Este 0 -- -- 42
2018-05-15 04:00:00 15.9 10 Este 22 Sudeste 0 -- -- 42
2018-05-15 03:00:00 16.2 14 Sudeste 20 Sudeste 0 -- -- 41
2018-05-15 02:00:00 16.8 14 Sudeste 22 Este 0 -- -- 41
2018-05-15 01:00:00 17 11 Este 19 Este 0 -- -- 43
2018-05-15 00:00:00 17.8 11 Este 20 Este 0 -- -- 41
2018-05-14 23:00:00 17.8 6 Este 17 Nordeste 0 -- -- 44
2018-05-14 22:00:00 18.6 9 Este 18 Este 0 -- -- 42
2018-05-14 21:00:00 18.9 5 Nordeste 19 Nordeste 0 -- -- 42
2018-05-14 20:00:00 20.9 8 Norte 20 Norte 0 -- -- 39
2018-05-14 19:00:00 20.9 10 Norte 26 Nordeste 0 -- -- 40
2018-05-14 18:00:00 21.9 11 Norte 24 Norte 0 -- -- 36
2018-05-14 17:00:00 21.8 10 Norte 27 Noroeste 0 -- -- 38
2018-05-14 16:00:00 21.7 11 Norte 27 Noroeste 0 -- -- 41
2018-05-14 15:00:00 21.2 15 Norte 26 Norte 0 -- -- 42
2018-05-14 14:00:00 19.9 12 Noroeste 26 Noroeste 0 -- -- 43
2018-05-14 13:00:00 19 9 Noroeste 21 Oeste 0 -- -- 42
2018-05-14 12:00:00 17.1 9 Oeste 21 Oeste 0 -- -- 48
2018-05-14 11:00:00 15.5 5 Noroeste 13 Oeste 0 -- -- 52
2018-05-14 10:00:00 13 4 Noroeste 11 Norte 0 -- -- 59
2018-05-14 09:00:00 11 5 Noroeste 12 Norte 0 -- -- 68
2018-05-14 08:00:00 9.2 9 Norte 14 Norte 0 -- -- 73
2018-05-14 07:00:00 9.1 6 Norte 10 Noroeste 0 -- -- 72
2018-05-14 06:00:00 9.4 0 Calma 8 Norte 0 -- -- 69
2018-05-14 05:00:00 9.9 4 Norte 13 Noroeste 0 -- -- 66
2018-05-14 04:00:00 10.5 6 Norte 13 Norte 0 -- -- 62
2018-05-14 03:00:00 11.2 5 Norte 15 Norte 0 -- -- 57
2018-05-14 02:00:00 11.6 7 Norte 13 Noroeste 0 -- -- 54
2018-05-14 01:00:00 12.2 5 Norte 14 Norte 0 -- -- 53
2018-05-11 20:00:00 -- -- -- -- -- -- -- -- --
2018-05-11 19:00:00 -- -- -- -- -- -- -- -- --
2018-05-11 18:00:00 -- -- -- -- -- -- -- -- --
2018-05-11 17:00:00 -- -- -- -- -- -- -- -- --
2018-05-11 16:00:00 24.5 7 Oeste 23 Sudoeste 0 -- -- 41
2018-05-11 15:00:00 25.7 12 Sudoeste 29 Sudoeste 0 -- -- 39
2018-05-11 14:00:00 24.9 15 Sur 27 Sudoeste 0 -- -- 43
2018-05-11 13:00:00 21.8 4 Sudoeste 18 Sur 0 -- -- 51
2018-05-11 12:00:00 22.1 10 Sudoeste 22 Sudoeste 0 -- -- 53
2018-05-11 11:00:00 21 14 Sur 21 Sur 0 -- -- 57
2018-05-11 10:00:00 18.8 7 Sudeste 13 Sur 0 -- -- 60
2018-05-11 09:00:00 15.7 5 Sur 13 Sudeste 0 -- -- 74
2018-05-11 08:00:00 14.3 4 Sur 13 Sudeste 0 -- -- 74
2018-05-11 07:00:00 13.1 4 Sudeste 10 Sudeste 0 -- -- 80
2018-05-11 06:00:00 15.1 5 Sur 15 Sudeste 0 -- -- 72
2018-05-11 05:00:00 15.3 11 Sur 15 Sur 0 -- -- 71
2018-05-11 04:00:00 15.3 8 Sur 15 Sudeste 0 -- -- 71
2018-05-11 03:00:00 15.5 11 Sudeste 15 Sudeste 0 -- -- 72
2018-05-11 02:00:00 16.4 8 Sudeste 12 Sudeste 0 -- -- 68
2018-05-11 01:00:00 17 5 Sur 15 Sur 0 -- -- 66
2018-05-11 00:00:00 18.3 6 Sudeste 12 Sur 0 -- -- 60
2018-05-10 23:00:00 18.3 6 Sudeste 15 Sudeste 0 -- -- 60
2018-05-10 22:00:00 19.1 8 Sudeste 13 Sudeste 0 -- -- 58
2018-05-10 21:00:00 22.4 6 Sudoeste 10 Sudoeste 0 -- -- 50
2018-05-10 20:00:00 24.2 6 Sudoeste 18 Sudoeste 0 -- -- 47
2018-05-10 19:00:00 24.6 8 Oeste 18 Sur 0 -- -- 43
2018-05-10 18:00:00 24.9 8 Sudoeste 22 Sudoeste 0 -- -- 44
2018-05-10 17:00:00 24.2 10 Sur 18 Sur 0 -- -- 46
2018-05-10 16:00:00 22.8 5 Sudoeste 21 Sudeste 0 -- -- 50
2018-05-10 15:00:00 22.8 9 Sur 18 Sudeste 0 -- -- 52
2018-05-10 14:00:00 19.8 5 Sudeste 18 Sudeste 0 -- -- 63
2018-05-10 13:00:00 20 7 Sudeste 17 Sudoeste 0 -- -- 60
2018-05-10 12:00:00 17.2 6 Norte 12 Norte 0 -- -- 68
2018-05-10 11:00:00 16.5 5 Norte 13 Noroeste 0 -- -- 70
2018-05-10 10:00:00 14.3 6 Oeste 10 Oeste 0 -- -- 79
2018-05-10 09:00:00 12.1 0 Calma 8 Sur 0 -- -- 85
2018-05-10 08:00:00 10.4 5 Sur 12 Sudoeste 0 -- -- 89
2018-05-10 07:00:00 10.7 8 Sudoeste 12 Sudoeste 0 -- -- 89
2018-05-10 06:00:00 11 8 Sudoeste 13 Sur 0 -- -- 87
2018-05-10 05:00:00 11.3 11 Sur 15 Sudoeste 0 -- -- 87
2018-05-10 04:00:00 12.1 9 Noroeste 20 Oeste 0 -- -- 83
2018-05-10 03:00:00 12.4 6 Sudoeste 14 Oeste 0 -- -- 88
2018-05-10 02:00:00 13.4 0 Calma 12 Oeste 0 -- -- 88
2018-05-10 01:00:00 13.9 11 Oeste 18 Oeste 0 -- -- 86
2018-05-10 00:00:00 14.6 12 Oeste 23 Oeste 0 -- -- 84
2018-05-09 23:00:00 15.5 10 Sudoeste 21 Oeste 0 -- -- 83
2018-05-09 22:00:00 16.3 14 Oeste 26 Oeste 0 -- -- 79
2018-05-09 21:00:00 17.5 14 Oeste 29 Oeste 0 -- -- 76
2018-05-09 20:00:00 19.6 19 Oeste 29 Oeste 0 -- -- 69
2018-05-09 19:00:00 21 19 Oeste 33 Oeste 0 -- -- 63
2018-05-09 18:00:00 23.5 21 Oeste 30 Oeste 0 -- -- 54
2018-05-09 17:00:00 23.4 18 Oeste 31 Oeste 0 -- -- 54
2018-05-09 16:00:00 24.2 17 Oeste 29 Oeste 0 -- -- 55
2018-05-09 15:00:00 22.9 17 Oeste 31 Oeste 0 -- -- 59
2018-05-09 14:00:00 22.4 14 Oeste 26 Noroeste 0 -- -- 64
2018-05-09 13:00:00 21.4 10 Oeste 20 Oeste 0 -- -- 69
2018-05-09 12:00:00 19.9 9 Oeste 15 Noroeste 0 -- -- 72
2018-05-09 11:00:00 19.1 9 Oeste 15 Oeste 0 -- -- 76
2018-05-09 10:00:00 18.7 9 Sur 17 Sudeste 0 -- -- 78
2018-05-09 09:00:00 16 9 Sur 15 Sudeste 0 -- -- 84
2018-05-09 08:00:00 13.2 5 Sudeste 14 Sur 0 -- -- 94
2018-05-09 07:00:00 13.4 0 Calma 14 Nordeste 0 -- -- 92
2018-05-09 06:00:00 14 10 Norte 21 Nordeste 0 -- -- 91
2018-05-09 05:00:00 14.5 12 Norte 33 Norte 0 -- -- 87
2018-05-09 04:00:00 16.7 9 Sudeste 13 Sudeste 0 -- -- 75
2018-05-09 03:00:00 16.5 8 Sudeste 20 Sudeste 0 -- -- 75
2018-05-09 02:00:00 14.5 13 Sudeste 34 Sudeste 4.2 -- -- 91
2018-05-09 01:00:00 15.2 22 Sudeste 42 Sudeste 2 -- -- 85
2018-05-09 00:00:00 16.7 3 Sur 20 Sudoeste 0 -- -- 71
2018-05-08 23:00:00 18.5 13 Sudoeste 31 Sudeste 0 -- -- 66
2018-05-08 22:00:00 18.7 18 Sudeste 32 Sudeste 0 -- -- 62
2018-05-08 21:00:00 20.1 13 Sudoeste 32 Sudoeste 0 -- -- 55
2018-05-08 20:00:00 22.4 12 Oeste 27 Noroeste 0 -- -- 58
2018-05-08 19:00:00 25 17 Noroeste 30 Noroeste 0 -- -- 47
2018-05-08 18:00:00 25.3 17 Noroeste 35 Noroeste 0 -- -- 46
2018-05-08 17:00:00 25.1 14 Noroeste 28 Noroeste 0 -- -- 46
2018-05-08 16:00:00 25.5 11 Norte 24 Norte 0 -- -- 41
2018-05-08 15:00:00 24.4 11 Noroeste 21 Noroeste 0 -- -- 47
2018-05-08 14:00:00 24.6 6 Oeste 21 Noroeste 0 -- -- 47
2018-05-08 13:00:00 23.2 8 Oeste 17 Oeste 0 -- -- 54
2018-05-08 12:00:00 21.6 5 Oeste 14 Sudoeste 0 -- -- 60
2018-05-08 11:00:00 19 4 Oeste 9 Oeste 0 -- -- 72
2018-05-08 10:00:00 17.1 7 Sudoeste 10 Sudoeste 0 -- -- 83
2018-05-08 09:00:00 16.3 3 Sudoeste 13 Sudeste 0 -- -- 87
2018-05-08 08:00:00 15 4 Sur 9 Norte 0 -- -- 87
2018-05-08 07:00:00 15.3 2 Noroeste 8 Noroeste 0 -- -- 84
2018-05-08 06:00:00 15.4 4 Sur 10 Sudeste 0 -- -- 83
2018-05-08 05:00:00 15.1 5 Sur 9 Sudeste 0 -- -- 86
2018-05-08 04:00:00 15.3 0 Calma 5 Sur 0 -- -- 81
2018-05-08 03:00:00 15.6 3 Sur 6 Sudeste 0 -- -- 78
2018-05-08 02:00:00 15.9 4 Sur 10 Sur 0 -- -- 77
2018-05-08 01:00:00 15.9 6 Sur 9 Sudoeste 0 -- -- 76
2018-05-08 00:00:00 16.9 3 Sur 8 Sudoeste 0 -- -- 70
2018-05-07 23:00:00 17.5 5 Oeste 14 Sudoeste 0 -- -- 68
2018-05-07 22:00:00 18.3 4 Sudoeste 13 Oeste 0 -- -- 64
2018-05-07 21:00:00 20 10 Sudoeste 29 Sudoeste 0 -- -- 59
2018-05-07 20:00:00 21.9 19 Sudoeste 28 Sudoeste 0 -- -- 50
2018-05-07 19:00:00 20.5 7 Este 24 Este 0 -- -- 53
2018-05-07 18:00:00 20.7 16 Nordeste 33 Nordeste 0 -- -- 57
2018-05-07 17:00:00 23.6 13 Norte 29 Norte 0 -- -- 39
2018-05-07 16:00:00 25.9 13 Noroeste 23 Noroeste 0 -- -- 35
2018-05-07 15:00:00 25 8 Norte 18 Nordeste 0 -- -- 39
2018-05-07 14:00:00 23.7 7 Nordeste 19 Norte 0 -- -- 40
2018-05-07 13:00:00 22.6 7 Norte 17 Nordeste 0 -- -- 46
2018-05-07 12:00:00 21.6 5 Nordeste 13 Noroeste 0 -- -- 49
2018-05-07 11:00:00 20.4 3 Norte 12 Sur 0 -- -- 57
2018-05-07 10:00:00 18.9 8 Sur 11 Sur 0 -- -- 68
2018-05-07 09:00:00 16.8 9 Este 15 Sudeste 0 -- -- 68
2018-05-07 08:00:00 14.9 4 Sudeste 19 Sudeste 0 -- -- 73
2018-05-07 07:00:00 15.3 14 Sudeste 24 Este 0 -- -- 68
2018-05-07 06:00:00 15.3 14 Sudeste 24 Sudeste 0 -- -- 70
2018-05-07 05:00:00 16.1 14 Sudeste 25 Sudeste 0 -- -- 64
2018-05-07 04:00:00 16 17 Sudeste 26 Sudeste 0 -- -- 66
2018-05-07 03:00:00 16 14 Sudeste 22 Sudeste 0 -- -- 68
2018-05-07 02:00:00 16.8 5 Este 21 Este 0 -- -- 65
2018-05-07 01:00:00 16.5 3 Este 7 Nordeste 0 -- -- 60
2018-05-07 00:00:00 17 9 Sudeste 22 Sudeste 0 -- -- 66
2018-05-06 23:00:00 17 16 Sudeste 40 Sudeste 0 -- -- 66
2018-05-06 22:00:00 18.2 12 Sudeste 23 Sur 0.6 -- -- 62
2018-05-06 21:00:00 23.5 9 Sur 12 Sur 0 -- -- 42
2018-05-06 20:00:00 24.2 7 Sudoeste 19 Sudeste 0 -- -- 41
2018-05-06 19:00:00 23.8 11 Sur 29 Sudeste 0 -- -- 44
2018-05-06 18:00:00 22.1 6 Este 31 Sudeste 0 -- -- 41
2018-05-06 17:00:00 24.3 9 Nordeste 33 Este 0 -- -- 37
2018-05-06 16:00:00 22.6 10 Norte 27 Este 0 -- -- 47
2018-05-06 15:00:00 22.9 9 Este 31 Este 0 -- -- 43
2018-05-06 14:00:00 23.1 5 Sudeste 20 Este 0 -- -- 44
2018-05-06 13:00:00 22.1 7 Sur 17 Sur 0 -- -- 50
2018-05-06 12:00:00 20.4 10 Sur 19 Sudeste 0 -- -- 55
2018-05-06 11:00:00 17.8 6 Nordeste 22 Sudeste 0 -- -- 61
2018-05-06 10:00:00 16.3 12 Sudeste 36 Sudeste 0 -- -- 65
2018-05-06 09:00:00 15.2 20 Sudeste 34 Sudeste 0 -- -- 67
2018-05-06 08:00:00 13.7 8 Sudeste 29 Sudeste 0 -- -- 70
2018-05-06 07:00:00 15.4 20 Sudeste 31 Este 0 -- -- 59
2018-05-06 06:00:00 15.8 5 Este 14 Este 0 -- -- 48
2018-05-06 05:00:00 16.5 5 Sudeste 19 Sudeste 0 -- -- 51
2018-05-06 04:00:00 16.2 0 Calma 7 Sudeste 0 -- -- 52
2018-05-06 03:00:00 16.5 2 Sudeste 5 Sudeste 0 -- -- 50
2018-05-06 02:00:00 16.7 4 Sudeste 8 Sudeste 0 -- -- 49
2018-05-06 01:00:00 17.3 2 Noroeste 5 Noroeste 0 -- -- 46
2018-05-06 00:00:00 19 3 Este 7 Este 0 -- -- 39
2018-05-05 23:00:00 19.9 6 Este 14 Este 0 -- -- 36
2018-05-05 22:00:00 20.3 7 Nordeste 13 Nordeste 0 -- -- 36
2018-05-05 21:00:00 22 5 Nordeste 14 Norte 0 -- -- 36
2018-05-05 20:00:00 23.3 9 Norte 19 Noroeste 0 -- -- 33
2018-05-05 19:00:00 23.8 10 Norte 23 Norte 0 -- -- 35
2018-05-05 18:00:00 24.6 11 Noroeste 29 Sudoeste 0 -- -- 37
2018-05-05 17:00:00 24.5 8 Norte 20 Nordeste 0 -- -- 33
2018-05-05 16:00:00 23.9 9 Norte 21 Norte 0 -- -- 33
2018-05-05 15:00:00 23.3 6 Norte 21 Noroeste 0 -- -- 35
2018-05-05 14:00:00 23 8 Oeste 18 Oeste 0 -- -- 37
2018-05-05 13:00:00 21.9 4 Nordeste 17 Noroeste 0 -- -- 33
2018-05-05 12:00:00 21.6 5 Sur 12 Oeste 0 -- -- 38
2018-05-05 11:00:00 19.4 4 Oeste 13 Oeste 0 -- -- 52
2018-05-05 10:00:00 17.2 3 Sudoeste 8 Noroeste 0 -- -- 54
2018-05-05 09:00:00 15.7 0 Calma 4 Sudeste 0 -- -- 55
2018-05-05 08:00:00 13.4 0 Calma 8 Nordeste 0 -- -- 55
2018-05-05 07:00:00 13.9 6 Este 8 Nordeste 0 -- -- 52
2018-05-05 06:00:00 13.2 3 Sudeste 3 Sudeste 0 -- -- 56
2018-05-05 05:00:00 13.6 2 Sudeste 7 Nordeste 0 -- -- 55
2018-05-05 04:00:00 13.6 2 Sudeste 4 Sudeste 0 -- -- 54
2018-05-05 03:00:00 13.8 0 Calma 5 Nordeste 0 -- -- 56
2018-05-05 02:00:00 14.1 2 Sudeste 6 Este 0 -- -- 54
2018-05-05 01:00:00 14.9 3 Sur 9 Nordeste 0 -- -- 53
2018-05-05 00:00:00 15.2 0 Calma 9 Este 0 -- -- 51
2018-05-04 23:00:00 16.2 5 Nordeste 10 Nordeste 0 -- -- 47
2018-05-04 22:00:00 16.7 7 Nordeste 10 Norte 0 -- -- 46
2018-05-04 21:00:00 18.5 8 Norte 16 Norte 0 -- -- 42
2018-05-04 20:00:00 19.5 9 Nordeste 20 Nordeste 0 -- -- 36
2018-05-04 19:00:00 19.6 10 Nordeste 21 Norte 0 -- -- 36
2018-05-04 18:00:00 19.9 8 Nordeste 19 Este 0 -- -- 37
2018-05-04 17:00:00 19.6 8 Nordeste 21 Nordeste 0 -- -- 37
2018-05-04 16:00:00 19.3 6 Norte 21 Norte 0 -- -- 37
2018-05-04 15:00:00 17.8 9 Nordeste 26 Nordeste 0 -- -- 38
2018-05-04 14:00:00 17.5 12 Nordeste 27 Nordeste 0 -- -- 39
2018-05-04 13:00:00 16.2 14 Nordeste 33 Nordeste 0 -- -- 42
2018-05-04 12:00:00 15.1 14 Nordeste 32 Este 0 -- -- 46
2018-05-04 11:00:00 13.7 21 Este 35 Este 0 -- -- 46
2018-05-04 10:00:00 12.8 10 Este 23 Este 0 -- -- 51
2018-05-04 09:00:00 11.5 12 Este 24 Sudeste 0 -- -- 53
2018-05-04 08:00:00 10.5 5 Sudeste 21 Este 0 -- -- 56
2018-05-04 07:00:00 11.6 5 Este 28 Sudeste 0 -- -- 51
2018-05-04 06:00:00 12.6 16 Sudeste 32 Este 0 -- -- 47
2018-05-04 05:00:00 13 9 Sudeste 26 Este 0 -- -- 47
2018-05-04 04:00:00 13.1 10 Sudeste 21 Este 0 -- -- 48
2018-05-04 03:00:00 14.4 12 Este 23 Este 0 -- -- 46
2018-05-04 02:00:00 13.2 9 Sudeste 15 Sudeste 0 -- -- 63
2018-05-04 01:00:00 14 4 Nordeste 12 Norte 0 -- -- 57
2018-05-04 00:00:00 14.3 5 Norte 10 Norte 0 -- -- 60
2018-05-03 23:00:00 15.6 3 Noroeste 13 Norte 0 -- -- 55
2018-05-03 22:00:00 16.4 8 Norte 15 Norte 0 -- -- 53
2018-05-03 21:00:00 18 9 Norte 21 Noroeste 0 -- -- 50
2018-05-03 20:00:00 18.5 14 Norte 23 Noroeste 0 -- -- 49
2018-05-03 19:00:00 19.9 15 Noroeste 28 Noroeste 0 -- -- 46
2018-05-03 18:00:00 20.2 14 Noroeste 31 Noroeste 0 -- -- 43
2018-05-03 17:00:00 20.7 12 Noroeste 24 Noroeste 0 -- -- 43
2018-05-03 16:00:00 19.7 8 Noroeste 23 Noroeste 0 -- -- 43
2018-05-03 15:00:00 20.4 6 Noroeste 22 Norte 0 -- -- 43
2018-05-03 14:00:00 19.2 6 Norte 18 Norte 0 -- -- 50
2018-05-03 13:00:00 17.9 5 Norte 13 Norte 0 -- -- 60
2018-05-03 12:00:00 15.9 5 Noroeste 12 Noroeste 0 -- -- 68
2018-05-03 11:00:00 13.4 5 Noroeste 9 Norte 0 -- -- 74
2018-05-03 10:00:00 11.6 3 Noroeste 6 Oeste 0 -- -- 81
2018-05-03 09:00:00 9.9 0 Calma 3 Noroeste 0 -- -- 90
2018-05-03 08:00:00 8 0 Calma 4 Sudoeste 0 -- -- 91
2018-05-03 07:00:00 8.3 2 Sur 5 Sudeste 0 -- -- 90
2018-05-03 06:00:00 8.6 3 Sudeste 7 Sudeste 0 -- -- 89
2018-05-03 05:00:00 8.9 0 Calma 6 Sudeste 0 -- -- 86
2018-05-03 04:00:00 8.9 3 Sur 5 Sur 0 -- -- 84
2018-05-03 03:00:00 9.5 0 Calma 5 Sur 0 -- -- 80
2018-05-03 02:00:00 9.9 2 Sur 5 Noroeste 0 -- -- 76
2018-05-03 01:00:00 10.4 0 Calma 8 Norte 0 -- -- 73
2018-05-03 00:00:00 10.7 4 Norte 15 Noroeste 0 -- -- 72
2018-05-02 23:00:00 11.2 7 Norte 16 Noroeste 0 -- -- 69
2018-05-02 22:00:00 12.5 9 Norte 13 Norte 0 -- -- 53
2018-05-02 21:00:00 14.9 8 Noroeste 18 Noroeste 0 -- -- 45
2018-05-02 20:00:00 16.4 13 Noroeste 25 Noroeste 0 -- -- 39
2018-05-02 19:00:00 16.8 10 Norte 29 Noroeste 0 -- -- 37
2018-05-02 18:00:00 17.2 10 Noroeste 27 Noroeste 0 -- -- 35
2018-05-02 17:00:00 17.2 14 Oeste 29 Oeste 0 -- -- 35
2018-05-02 16:00:00 16.2 18 Oeste 28 Oeste 0 -- -- 30
2018-05-02 15:00:00 15.8 11 Oeste 30 Noroeste 0 -- -- 38
2018-05-02 14:00:00 14.6 9 Oeste 23 Oeste 0 -- -- 39
2018-05-02 13:00:00 13.9 9 Oeste 21 Oeste 0 -- -- 39
2018-05-02 12:00:00 12.8 9 Oeste 17 Oeste 0 -- -- 38
2018-05-02 11:00:00 11.2 8 Oeste 15 Oeste 0 -- -- 54
2018-05-02 10:00:00 9.5 9 Oeste 15 Oeste 0 -- -- 61
2018-05-02 09:00:00 8.4 4 Sur 9 Sudoeste 0 -- -- 79
2018-05-02 08:00:00 5.6 5 Sur 8 Sudeste 0 -- -- 81
2018-05-02 07:00:00 5.9 4 Sur 7 Sur 0 -- -- 78
2018-05-02 06:00:00 6 5 Sur 9 Sur 0 -- -- 80
2018-05-02 05:00:00 6.3 5 Sur 9 Sudoeste 0 -- -- 79
2018-05-02 04:00:00 6.8 3 Sur 10 Sudoeste 0 -- -- 80
2018-05-02 03:00:00 7.5 4 Sur 14 Sudoeste 0 -- -- 78
2018-05-02 02:00:00 8.6 7 Sur 15 Sudoeste 0 -- -- 72
2018-05-02 01:00:00 9.3 9 Sur 18 Oeste 0 -- -- 67
2018-05-02 00:00:00 10.6 6 Sudeste 9 Sudeste 0 -- -- 62
2018-05-01 23:00:00 11 4 Sudeste 5 Sudeste 0 -- -- 61
2018-05-01 22:00:00 11.3 0 Calma 5 Noroeste 0 -- -- 59
2018-05-01 21:00:00 13.5 3 Noroeste 10 Noroeste 0 -- -- 57
2018-05-01 20:00:00 14.1 6 Noroeste 19 Nordeste 0 -- -- 55
2018-05-01 19:00:00 15.3 13 Norte 21 Norte 0 -- -- 46
2018-05-01 18:00:00 15.2 9 Norte 22 Norte 0 -- -- 51
2018-05-01 17:00:00 14.4 13 Noroeste 22 Noroeste 0 -- -- 58
2018-05-01 16:00:00 13.6 7 Noroeste 14 Noroeste 0 -- -- 67
2018-05-01 15:00:00 10.2 5 Noroeste 19 Norte 2.2 -- -- 82
2018-05-01 14:00:00 8.5 12 Nordeste 37 Nordeste 3 -- -- 84
2018-05-01 13:00:00 13.6 11 Norte 23 Norte 0 -- -- 58
2018-05-01 12:00:00 12 10 Nordeste 18 Noroeste 0 -- -- 66
2018-05-01 11:00:00 11.1 9 Noroeste 17 Noroeste 0 -- -- 75
2018-05-01 10:00:00 10 9 Noroeste 19 Noroeste 0 -- -- 82
2018-05-01 09:00:00 8.5 7 Oeste 11 Noroeste 0 -- -- 91
2018-05-01 08:00:00 7 3 Sudoeste 12 Oeste 0 -- -- 94
2018-05-01 07:00:00 7 3 Oeste 9 Sudeste 0 -- -- 91
2018-05-01 06:00:00 7.4 7 Sur 12 Sur 0 -- -- 91
2018-05-01 05:00:00 7.6 4 Sur 9 Oeste 0 -- -- 86
2018-05-01 04:00:00 7.9 3 Sur 6 Sudoeste 0 -- -- 79
2018-05-01 03:00:00 8.2 3 Sur 9 Sur 0 -- -- 76
2018-05-01 02:00:00 8.7 0 Calma 2 Sur 0 -- -- 73
2018-05-01 01:00:00 8.9 0 Calma 6 Norte 0 -- -- 70
2018-05-01 00:00:00 9.3 0 Calma 4 Sur 0 -- -- 69
2018-04-30 23:00:00 9.9 2 Sudoeste 10 Norte 0 -- -- 67
2018-04-30 22:00:00 10.7 6 Norte 13 Norte 0 -- -- 63
2018-04-30 21:00:00 12.3 8 Norte 22 Noroeste 0 -- -- 58
2018-04-30 20:00:00 13.5 14 Noroeste 26 Noroeste 0 -- -- 53
2018-04-30 19:00:00 15 15 Noroeste 26 Noroeste 0 -- -- 48
2018-04-30 18:00:00 14.4 14 Noroeste 27 Noroeste 0 -- -- 49
2018-04-30 17:00:00 14.5 15 Noroeste 32 Noroeste 0 -- -- 55
2018-04-30 16:00:00 14 14 Oeste 26 Sudoeste 0 -- -- 55
2018-04-30 15:00:00 12 6 Noroeste 21 Noroeste 1.6 -- -- 74
2018-04-30 14:00:00 10.8 13 Norte 23 Norte 0 -- -- 74
2018-04-30 13:00:00 11.2 13 Oeste 21 Oeste 0 -- -- 69
2018-04-30 12:00:00 10.7 9 Oeste 17 Noroeste 0 -- -- 69
2018-04-30 11:00:00 9.4 6 Oeste 13 Sudoeste 0 -- -- 76
2018-04-30 10:00:00 8.7 6 Oeste 9 Oeste 0 -- -- 81
2018-04-30 09:00:00 6.9 4 Sur 7 Sur 0 -- -- 89
2018-04-30 08:00:00 5.6 2 Sur 5 Sur 0 -- -- 91
2018-04-30 07:00:00 5.1 4 Sur 6 Sur 0 -- -- 91
2018-04-30 06:00:00 5.1 3 Sur 6 Sudoeste 0 -- -- 91
2018-04-30 05:00:00 5.6 4 Sudoeste 13 Oeste 0 -- -- 88
2018-04-30 04:00:00 5.6 4 Sur 9 Sur 0 -- -- 87
2018-04-30 03:00:00 6.3 3 Sur 8 Sur 0 -- -- 81
2018-04-30 02:00:00 6.5 3 Sudoeste 7 Noroeste 0 -- -- 80
2018-04-30 01:00:00 7 3 Oeste 18 Oeste 0 -- -- 77
2018-04-30 00:00:00 8 4 Noroeste 13 Oeste 0 -- -- 74
2018-04-29 23:00:00 8.4 3 Sudoeste 9 Sudoeste 0 -- -- 78
2018-04-29 22:00:00 8.8 6 Sudoeste 16 Oeste 0 -- -- 76
2018-04-29 21:00:00 9.8 8 Oeste 24 Noroeste 0 -- -- 74
2018-04-29 20:00:00 10.6 22 Oeste 34 Noroeste 0 -- -- 76
2018-04-29 19:00:00 12.4 19 Sudoeste 33 Oeste 0 -- -- 79
2018-04-29 18:00:00 8.8 15 Oeste 51 Noroeste 0.4 -- -- 92
2018-04-29 17:00:00 12.3 28 Oeste 49 Sudoeste 0 -- -- 63
2018-04-29 16:00:00 14.1 31 Oeste 50 Oeste 0 -- -- 61
2018-04-29 15:00:00 13.5 30 Oeste 46 Sudoeste 0 -- -- 62
2018-04-29 14:00:00 10.1 36 Oeste 57 Oeste 0.2 -- -- 74
2018-04-29 13:00:00 10 28 Oeste 48 Oeste 0.2 -- -- 74
2018-04-29 12:00:00 10.3 27 Oeste 40 Oeste 0 -- -- 77
2018-04-29 11:00:00 8.8 23 Oeste 38 Oeste 0 -- -- 79
2018-04-29 10:00:00 7.6 18 Oeste 40 Oeste 0 -- -- 83
2018-04-29 09:00:00 7.1 18 Oeste 31 Oeste 0 -- -- 87
2018-04-29 08:00:00 6.3 12 Oeste 24 Oeste 0 -- -- 93
2018-04-29 07:00:00 6 17 Oeste 36 Oeste 0 -- -- 90
2018-04-29 06:00:00 6.3 20 Oeste 35 Oeste 0 -- -- 92
2018-04-29 05:00:00 6.6 22 Oeste 33 Sudoeste 0 -- -- 92
2018-04-29 04:00:00 6.6 19 Sudoeste 31 Sudoeste 0.2 -- -- 94
2018-04-29 03:00:00 6.6 6 Sudoeste 21 Oeste 0 -- -- 96
2018-04-29 02:00:00 6.4 11 Oeste 31 Oeste 0.6 -- -- 93
2018-04-29 01:00:00 7.8 22 Oeste 34 Oeste 0.4 -- -- 93
2018-04-29 00:00:00 8.1 11 Sur 18 Sudoeste 1.8 -- -- 94
2018-04-28 23:00:00 8.6 17 Sudoeste 33 Oeste 0.8 -- -- 91
2018-04-28 22:00:00 11.6 11 Sudoeste 30 Oeste 0 -- -- 63
2018-04-28 21:00:00 12.2 3 Sudoeste 13 Oeste 0 -- -- 55
2018-04-28 20:00:00 13.3 10 Oeste 22 Oeste 0 -- -- 51
2018-04-28 19:00:00 13.6 13 Oeste 25 Oeste 0 -- -- 47
2018-04-28 18:00:00 14.1 12 Oeste 30 Noroeste 0 -- -- 46
2018-04-28 17:00:00 14.2 18 Oeste 30 Oeste 0 -- -- 47
2018-04-28 16:00:00 14.9 15 Oeste 33 Oeste 0 -- -- 46
2018-04-28 15:00:00 15.2 22 Oeste 33 Oeste 0 -- -- 46
2018-04-28 14:00:00 14.7 18 Oeste 38 Oeste 0 -- -- 51
2018-04-28 13:00:00 13.7 23 Oeste 40 Sudoeste 0 -- -- 51
2018-04-28 12:00:00 11.8 19 Oeste 35 Oeste 0 -- -- 59
2018-04-28 11:00:00 11.1 19 Oeste 31 Oeste 0 -- -- 57
2018-04-28 10:00:00 10 19 Oeste 28 Oeste 0 -- -- 61
2018-04-28 09:00:00 7.6 11 Sudoeste 23 Oeste 0 -- -- 76
2018-04-28 08:00:00 8.2 12 Oeste 23 Oeste 0 -- -- 73
2018-04-28 07:00:00 9.5 15 Oeste 24 Oeste 0 -- -- 79
2018-04-28 06:00:00 10.5 10 Oeste 18 Sudoeste 0 -- -- 80
2018-04-28 05:00:00 11.1 8 Noroeste 14 Oeste 0 -- -- 76
2018-04-28 04:00:00 11.6 5 Oeste 16 Noroeste 0 -- -- 77
2018-04-28 03:00:00 12.1 7 Oeste 12 Oeste 0 -- -- 81
2018-04-28 02:00:00 12.1 6 Oeste 16 Noroeste 0 -- -- 84
2018-04-28 01:00:00 13.2 10 Noroeste 21 Noroeste 0 -- -- 80
2018-04-28 00:00:00 14.1 6 Oeste 11 Noroeste 0 -- -- 75
2018-04-27 23:00:00 14.6 8 Noroeste 15 Noroeste 0 -- -- 72
2018-04-27 22:00:00 15.7 10 Noroeste 16 Noroeste 0 -- -- 69
2018-04-27 21:00:00 18.3 12 Oeste 28 Oeste 0 -- -- 54
2018-04-27 20:00:00 20.3 18 Oeste 32 Noroeste 0 -- -- 41
2018-04-27 19:00:00 21.4 19 Oeste 35 Oeste 0 -- -- 39
2018-04-27 18:00:00 22 18 Oeste 31 Oeste 0 -- -- 36
2018-04-27 17:00:00 22.3 20 Oeste 36 Oeste 0 -- -- 37
2018-04-27 16:00:00 21.8 11 Noroeste 29 Oeste 0 -- -- 36
2018-04-27 15:00:00 21.1 16 Noroeste 27 Oeste 0 -- -- 33
2018-04-27 14:00:00 20.3 13 Oeste 31 Oeste 0 -- -- 49
2018-04-27 13:00:00 19.2 11 Oeste 22 Oeste 0 -- -- 50
2018-04-27 12:00:00 17.6 9 Oeste 19 Oeste 0 -- -- 53
2018-04-27 11:00:00 16.1 11 Oeste 21 Oeste 0 -- -- 59
2018-04-27 10:00:00 14.2 12 Sudoeste 21 Sudoeste 0 -- -- 68
2018-04-27 09:00:00 12.4 9 Sur 16 Sudoeste 0 -- -- 74
2018-04-27 08:00:00 12.7 5 Oeste 18 Oeste 0 -- -- 91
2018-04-27 07:00:00 13.9 9 Sur 20 Sudoeste 0 -- -- 92
2018-04-27 06:00:00 14.8 13 Sur 19 Sudoeste 0 -- -- 92
2018-04-27 05:00:00 14.9 13 Sur 18 Sudoeste 0 -- -- 85
2018-04-27 04:00:00 16 5 Sudoeste 18 Oeste 0 -- -- 83
2018-04-27 03:00:00 16.3 10 Sudoeste 22 Oeste 0 -- -- 81
2018-04-27 02:00:00 17.5 13 Sudoeste 20 Sudoeste 0 -- -- 81
2018-04-27 01:00:00 18 12 Sur 20 Sur 0 -- -- 78
2018-04-27 00:00:00 18.7 9 Sur 15 Sur 0 -- -- 77
2018-04-26 23:00:00 19.7 8 Sur 14 Sur 0 -- -- 62
2018-04-26 22:00:00 21.9 8 Sur 11 Sur 0 -- -- 50
2018-04-26 21:00:00 23.9 5 Nordeste 8 Nordeste 0 -- -- 42
2018-04-26 20:00:00 25.9 5 Oeste 11 Noroeste 0 -- -- 40
2018-04-26 19:00:00 26.3 7 Noroeste 15 Noroeste 0 -- -- 36
2018-04-26 18:00:00 26.6 6 Noroeste 14 Norte 0 -- -- 37
2018-04-26 17:00:00 27.6 8 Sudoeste 18 Oeste 0 -- -- 41
2018-04-26 16:00:00 26.4 9 Sur 29 Sudoeste 0 -- -- 36
2018-04-26 15:00:00 26 7 Sudoeste 19 Sur 0 -- -- 41
2018-04-26 14:00:00 25.2 11 Sur 20 Sur 0 -- -- 45
2018-04-26 13:00:00 24.2 12 Sur 22 Sur 0 -- -- 49
2018-04-26 12:00:00 22.9 10 Sur 15 Sur 0 -- -- 54
2018-04-26 11:00:00 21.2 6 Sur 12 Sur 0 -- -- 56
2018-04-26 10:00:00 19 8 Sur 13 Sur 0 -- -- 62
2018-04-26 09:00:00 16.2 0 Calma 20 Este 0 -- -- 64
2018-04-26 08:00:00 17.1 17 Este 24 Este 0 -- -- 52
2018-04-26 07:00:00 15.6 9 Sudeste 19 Sudeste 0 -- -- 55
2018-04-26 06:00:00 15.7 3 Este 10 Sudeste 0 -- -- 57
2018-04-26 05:00:00 16.2 0 Calma 10 Sudeste 0 -- -- 59
2018-04-26 04:00:00 17.3 8 Sudeste 18 Este 0 -- -- 57
2018-04-26 03:00:00 18.3 6 Este 17 Este 0 -- -- 52
2018-04-26 02:00:00 18.5 9 Este 21 Sudeste 0 -- -- 52
2018-04-26 01:00:00 18.7 14 Sudeste 31 Sudeste 0 -- -- 53
2018-04-26 00:00:00 17.6 19 Sudeste 38 Sudeste 0 -- -- 62
2018-04-25 23:00:00 18.2 23 Sudeste 46 Este 0 -- -- 59
2018-04-25 22:00:00 22.2 10 Norte 18 Noroeste 0 -- -- 51
2018-04-25 21:00:00 23 9 Norte 20 Norte 0 -- -- 48
2018-04-25 20:00:00 25.5 14 Noroeste 24 Norte 0 -- -- 44
2018-04-25 19:00:00 26.8 15 Noroeste 25 Noroeste 0 -- -- 42
2018-04-25 18:00:00 27.2 10 Norte 23 Noroeste 0 -- -- 39
2018-04-25 17:00:00 26.4 12 Norte 21 Noroeste 0 -- -- 38
2018-04-25 16:00:00 25.4 8 Nordeste 20 Nordeste 0 -- -- 37
2018-04-25 15:00:00 24.6 11 Nordeste 21 Nordeste 0 -- -- 35
2018-04-25 14:00:00 23.1 13 Nordeste 21 Nordeste 0 -- -- 40
2018-04-25 13:00:00 22.1 8 Nordeste 17 Este 0 -- -- 41
2018-04-25 12:00:00 20 8 Este 17 Este 0 -- -- 47
2018-04-25 11:00:00 19.3 11 Este 25 Este 0 -- -- 50
2018-04-25 10:00:00 17.7 4 Sudoeste 24 Nordeste 0 -- -- 67
2018-04-25 09:00:00 14.7 13 Nordeste 18 Nordeste 0 -- -- 67
2018-04-25 08:00:00 16 5 Norte 20 Sudeste 0 -- -- 64
2018-04-25 07:00:00 14.5 2 Nordeste 10 Sudeste 0 -- -- 69
2018-04-25 06:00:00 15.1 2 Este 8 Sudeste 0 -- -- 64
2018-04-25 05:00:00 15.5 3 Este 8 Nordeste 0 -- -- 61
2018-04-25 04:00:00 16.2 2 Sudeste 16 Este 0 -- -- 59
2018-04-25 03:00:00 17.3 5 Este 22 Este 0 -- -- 55
2018-04-25 02:00:00 19 10 Este 37 Este 0 -- -- 49
2018-04-25 01:00:00 19.9 12 Este 28 Nordeste 0 -- -- 51
2018-04-25 00:00:00 19.2 10 Nordeste 14 Nordeste 0 -- -- 56
2018-04-24 23:00:00 19.3 8 Nordeste 12 Nordeste 0 -- -- 54
2018-04-24 22:00:00 19.8 7 Nordeste 10 Nordeste 0 -- -- 53
2018-04-24 21:00:00 20.6 6 Norte 15 Norte 0 -- -- 56
2018-04-24 20:00:00 22.1 10 Norte 21 Norte 0 -- -- 50
2018-04-24 19:00:00 21.8 12 Nordeste 22 Norte 0 -- -- 53
2018-04-24 18:00:00 22.2 14 Nordeste 21 Nordeste 0 -- -- 50
2018-04-24 17:00:00 22 12 Norte 19 Norte 0 -- -- 49
2018-04-24 16:00:00 21.6 9 Nordeste 19 Nordeste 0 -- -- 47
2018-04-24 15:00:00 21.7 7 Nordeste 23 Este 0 -- -- 41
2018-04-24 14:00:00 20 17 Este 35 Este 0 -- -- 41
2018-04-24 13:00:00 21.2 15 Este 28 Este 0 -- -- 39
2018-04-24 12:00:00 20.7 6 Este 15 Sudeste 0 -- -- 44
2018-04-24 11:00:00 19.1 6 Sur 38 Este 0 -- -- 53
2018-04-24 10:00:00 17.6 19 Este 44 Este 0 -- -- 42
2018-04-24 09:00:00 17.4 21 Este 38 Nordeste 0 -- -- 46
2018-04-24 08:00:00 16.3 7 Sudoeste 23 Sudeste 0 -- -- 61
2018-04-24 07:00:00 16.5 7 Sudeste 17 Este 0 -- -- 61
2018-04-24 06:00:00 16.9 2 Noroeste 12 Nordeste 0 -- -- 60
2018-04-24 05:00:00 17.6 3 Este 25 Sudeste 0 -- -- 58
2018-04-24 04:00:00 18.8 19 Este 35 Este 0 -- -- 50
2018-04-24 03:00:00 19.4 17 Este 31 Este 0 -- -- 48
2018-04-24 02:00:00 20.2 15 Este 25 Este 0 -- -- 45
2018-04-24 01:00:00 20.9 6 Este 33 Este 0 -- -- 43
2018-04-24 00:00:00 21.4 19 Este 36 Sudeste 0 -- -- 43
2018-04-23 23:00:00 21.8 18 Este 31 Este 0 -- -- 42
2018-04-23 22:00:00 21.3 14 Este 26 Este 0 -- -- 45
2018-04-23 21:00:00 21.1 12 Nordeste 22 Nordeste 0 -- -- 54
2018-04-23 20:00:00 21.9 15 Nordeste 32 Este 0 -- -- 56
2018-04-23 19:00:00 21.8 17 Este 33 Este 0 -- -- 53
2018-04-23 18:00:00 22.1 16 Nordeste 30 Este 0 -- -- 54
2018-04-23 17:00:00 22.9 17 Nordeste 32 Nordeste 0 -- -- 51
2018-04-23 16:00:00 23.3 14 Nordeste 28 Norte 0 -- -- 50
2018-04-23 15:00:00 23.2 12 Este 39 Este 0 -- -- 47
2018-04-23 14:00:00 21.7 21 Este 40 Este 0 -- -- 53
2018-04-23 13:00:00 20.8 15 Este 35 Este 0 -- -- 63
2018-04-23 12:00:00 18.8 16 Este 33 Este 0.2 -- -- 70
2018-04-23 11:00:00 17.6 15 Este 26 Este 0 -- -- 74
2018-04-23 10:00:00 17.4 9 Nordeste 17 Este 0 -- -- 67
2018-04-23 09:00:00 15.3 7 Norte 13 Norte 0 -- -- 80
2018-04-23 08:00:00 13.5 3 Sudoeste 15 Noroeste 0 -- -- 86
2018-04-23 07:00:00 13.8 4 Noroeste 19 Noroeste 0 -- -- 91
2018-04-23 06:00:00 14.1 6 Sudoeste 26 Sur 2.8 -- -- 90
2018-04-23 05:00:00 15.8 3 Oeste 30 Este 0 -- -- 80
2018-04-23 04:00:00 16.8 21 Este 35 Este 0.4 -- -- 65
2018-04-23 03:00:00 16 11 Nordeste 42 Este 0.6 -- -- 73
2018-04-23 02:00:00 17.5 24 Este 37 Este 0.6 -- -- 63
2018-04-23 01:00:00 18.4 17 Nordeste 30 Este 0.2 -- -- 60
2018-04-23 00:00:00 16.3 12 Nordeste 21 Este 4.6 -- -- 75
2018-04-22 23:00:00 17.7 5 Norte 17 Nordeste 0 -- -- 73
2018-04-22 22:00:00 18.9 12 Nordeste 18 Nordeste 0 -- -- 66
2018-04-22 21:00:00 19.3 12 Nordeste 18 Norte 0 -- -- 67
2018-04-22 20:00:00 20.9 10 Nordeste 20 Nordeste 0 -- -- 61
2018-04-22 19:00:00 21.4 12 Nordeste 20 Nordeste 0 -- -- 56
2018-04-22 18:00:00 21.7 10 Nordeste 20 Norte 0 -- -- 56
2018-04-22 17:00:00 21.9 10 Este 21 Nordeste 0 -- -- 55
2018-04-22 16:00:00 21.7 9 Nordeste 15 Sudeste 0 -- -- 56
2018-04-22 15:00:00 20.2 4 Norte 18 Nordeste 0 -- -- 64
2018-04-22 14:00:00 20.2 6 Nordeste 21 Este 0 -- -- 62
2018-04-22 13:00:00 18.5 9 Sudeste 52 Este 0 -- -- 66
2018-04-22 12:00:00 15.7 18 Este 51 Este 0 -- -- 76
2018-04-22 11:00:00 15.8 7 Sudeste 32 Este 0 -- -- 75
2018-04-22 10:00:00 14.9 19 Este 55 Sudeste 0 -- -- 74
2018-04-22 09:00:00 14.4 31 Este 57 Este 0 -- -- 75
2018-04-22 08:00:00 14.2 18 Este 48 Este 0 -- -- 77
2018-04-22 07:00:00 13.9 21 Este 53 Este 0.6 -- -- 79
2018-04-22 06:00:00 13.5 19 Este 39 Este 1.6 -- -- 81
2018-04-22 05:00:00 12.8 10 Nordeste 25 Norte 0.2 -- -- 86
2018-04-22 04:00:00 13.4 20 Nordeste 40 Nordeste 0 -- -- 82
2018-04-22 03:00:00 12.8 21 Nordeste 32 Nordeste 0 -- -- 87
2018-04-22 02:00:00 12.9 17 Nordeste 32 Nordeste 0.2 -- -- 92
2018-04-22 01:00:00 13.3 15 Nordeste 29 Norte 1 -- -- 94
2018-04-22 00:00:00 14.2 13 Noroeste 32 Oeste 5 -- -- 91